Aviation Digital Data Service (ADDS)

Output produced by TAFs form (0827 UTC 04 July 2015)
found at http://aviationweather.gov/adds/tafs/
 
KRIL 040524Z 0406/0506 VRB03KT P6SM VCTS SCT060CB OVC100 
     TEMPO 0406/0408 VRB15G30KT -TSRA 
     FM041200 00000KT P6SM SCT250 
     FM041800 31008KT P6SM SCT100 
     FM042100 31012KT P6SM VCTS SCT080CB BKN150 
     FM050300 12010KT P6SM BKN100